Time;durP1;ratioP1;P1;durP2;ratioP2;P2;SDS_P1;SDS_P2;PMS_P1;PMS_P2;Temp;Humidity;BMP_temperature;BMP_pressure;BME280_temperature;BME280_humidity;BME280_pressure;Samples;Min_cycle;Max_cycle;Signal;HPM_P1;HPM_P2
2021/09/05 00:01:51;;;;;;;11.20;3.83;;;17.10;88.90;;;;;;5033110;28;20056;-73
2021/09/05 00:04:16;;;;;;;8.55;4.38;;;17.10;88.90;;;;;;5033266;28;20029;-73
2021/09/05 00:06:42;;;;;;;9.65;4.80;;;17.00;88.80;;;;;;5033479;28;20408;-72
2021/09/05 00:09:08;;;;;;;9.02;3.92;;;17.00;88.80;;;;;;5032951;28;20528;-72
2021/09/05 00:11:34;;;;;;;8.10;4.53;;;17.00;88.90;;;;;;5033775;28;20049;-72
2021/09/05 00:14:00;;;;;;;8.20;3.97;;;17.00;88.90;;;;;;5033184;28;20057;-72
2021/09/05 00:16:26;;;;;;;10.10;4.10;;;17.00;88.90;;;;;;5032695;28;20516;-72
2021/09/05 00:18:52;;;;;;;8.10;4.03;;;17.00;88.90;;;;;;5033035;28;20064;-72
2021/09/05 00:21:17;;;;;;;7.82;3.92;;;17.00;88.90;;;;;;5032636;28;20021;-73
2021/09/05 00:23:43;;;;;;;9.00;3.97;;;16.90;88.90;;;;;;5033420;28;20526;-73
2021/09/05 00:26:10;;;;;;;8.77;4.13;;;16.90;89.00;;;;;;5032239;28;20021;-73
2021/09/05 00:28:36;;;;;;;7.72;3.78;;;16.90;89.00;;;;;;5033183;28;20418;-72
2021/09/05 00:31:02;;;;;;;8.25;4.22;;;16.90;89.00;;;;;;5033095;28;20166;-73
2021/09/05 00:33:28;;;;;;;10.00;4.47;;;16.90;89.00;;;;;;5032489;28;20049;-72
2021/09/05 00:35:54;;;;;;;12.30;4.25;;;16.90;89.00;;;;;;5032723;28;20025;-72
2021/09/05 00:38:19;;;;;;;10.13;4.72;;;16.90;89.00;;;;;;5032056;28;20022;-72
2021/09/05 00:40:45;;;;;;;10.98;4.57;;;16.80;89.00;;;;;;5031608;28;20084;-72
2021/09/05 00:43:11;;;;;;;9.45;4.47;;;16.90;89.00;;;;;;5032252;28;20057;-72
2021/09/05 00:45:37;;;;;;;7.80;3.85;;;16.80;89.00;;;;;;5037029;28;20103;-72
2021/09/05 00:48:03;;;;;;;7.93;4.20;;;16.80;89.10;;;;;;5052718;28;20025;-72
2021/09/05 00:50:30;;;;;;;12.35;4.05;;;16.70;89.00;;;;;;5052017;28;20055;-72
2021/09/05 00:52:56;;;;;;;8.23;4.18;;;16.80;89.20;;;;;;5052606;28;20112;-73
2021/09/05 00:55:23;;;;;;;8.25;4.43;;;16.80;89.10;;;;;;5051955;28;20082;-72
2021/09/05 00:57:50;;;;;;;9.48;4.28;;;16.70;89.10;;;;;;5052492;28;20028;-72
2021/09/05 01:00:19;;;;;;;9.25;5.20;;;16.70;89.20;;;;;;5051823;28;20028;-72
2021/09/05 01:02:46;;;;;;;11.70;4.55;;;16.70;89.10;;;;;;5051305;28;20113;-72
2021/09/05 01:05:11;;;;;;;12.18;4.82;;;16.70;89.20;;;;;;5052125;28;20029;-72
2021/09/05 01:07:37;;;;;;;9.48;4.18;;;16.70;89.30;;;;;;5052101;28;20075;-72
2021/09/05 01:10:04;;;;;;;8.10;3.90;;;16.70;89.40;;;;;;5052083;28;20033;-72
2021/09/05 01:12:30;;;;;;;9.95;4.32;;;16.60;89.30;;;;;;5049357;28;20545;-72
2021/09/05 01:14:55;;;;;;;11.95;4.43;;;16.60;89.30;;;;;;5051917;28;20076;-72
2021/09/05 01:17:21;;;;;;;10.95;4.50;;;16.60;89.20;;;;;;5051628;28;20048;-72
2021/09/05 01:19:47;;;;;;;8.35;4.35;;;16.60;89.30;;;;;;5052271;28;20465;-72
2021/09/05 01:22:13;;;;;;;10.00;4.00;;;16.60;89.30;;;;;;5050436;28;20025;-72
2021/09/05 01:24:39;;;;;;;8.00;3.80;;;16.60;89.30;;;;;;5052374;28;20013;-72
2021/09/05 01:27:04;;;;;;;9.98;4.53;;;16.60;89.30;;;;;;5052101;28;20475;-72
2021/09/05 01:29:30;;;;;;;9.45;4.15;;;16.60;89.20;;;;;;5050208;28;20830;-72
2021/09/05 01:31:56;;;;;;;9.90;4.10;;;16.60;89.30;;;;;;5051974;28;20070;-72
2021/09/05 01:34:24;;;;;;;9.07;4.18;;;16.50;89.30;;;;;;5051345;28;20032;-72
2021/09/05 01:36:51;;;;;;;10.68;4.90;;;16.50;89.30;;;;;;5051675;28;20175;-72
2021/09/05 01:39:19;;;;;;;9.43;4.30;;;16.50;89.20;;;;;;5051226;28;20029;-72
2021/09/05 01:41:46;;;;;;;11.32;4.60;;;16.50;89.30;;;;;;5051778;28;20048;-72
2021/09/05 01:44:15;;;;;;;10.25;4.40;;;16.40;89.10;;;;;;5051181;28;20031;-72
2021/09/05 01:46:41;;;;;;;9.73;4.10;;;16.40;89.10;;;;;;5051445;28;20447;-72
2021/09/05 01:49:07;;;;;;;9.20;3.90;;;16.40;89.30;;;;;;5051515;28;20115;-72
2021/09/05 01:51:33;;;;;;;8.20;3.35;;;16.40;89.30;;;;;;5051120;28;20102;-72
2021/09/05 01:53:59;;;;;;;10.02;3.70;;;16.40;89.30;;;;;;5051465;28;20021;-72
2021/09/05 01:56:27;;;;;;;7.50;3.58;;;16.40;89.30;;;;;;5051088;28;20457;-72
2021/09/05 01:58:52;;;;;;;7.28;3.50;;;16.40;89.40;;;;;;5051646;28;20104;-72
2021/09/05 02:01:18;;;;;;;8.10;4.43;;;16.40;89.40;;;;;;5050804;28;20109;-72
2021/09/05 02:03:44;;;;;;;9.38;3.92;;;16.40;89.40;;;;;;5050326;28;20442;-72
2021/09/05 02:06:09;;;;;;;7.05;3.63;;;16.40;89.40;;;;;;5052092;28;20025;-72
2021/09/05 02:08:35;;;;;;;8.45;4.03;;;16.40;90.00;;;;;;5050747;28;20477;-72
2021/09/05 02:11:00;;;;;;;8.75;4.50;;;16.30;89.40;;;;;;5051459;28;20381;-72
2021/09/05 02:13:26;;;;;;;9.77;4.18;;;16.30;89.50;;;;;;5050885;28;20052;-72
2021/09/05 02:15:52;;;;;;;8.32;3.80;;;16.30;89.60;;;;;;5051481;28;20037;-72
2021/09/05 02:18:18;;;;;;;9.02;4.25;;;16.30;89.60;;;;;;5050729;28;20048;-72
2021/09/05 02:20:44;;;;;;;8.52;3.97;;;16.30;89.60;;;;;;5051507;28;20036;-72
2021/09/05 02:23:09;;;;;;;8.90;3.95;;;16.30;89.60;;;;;;5051475;28;20029;-72
2021/09/05 02:25:35;;;;;;;7.80;3.50;;;16.20;89.50;;;;;;5054847;28;20021;-72
2021/09/05 02:28:01;;;;;;;7.60;3.63;;;16.20;89.60;;;;;;5055508;28;20472;-72
2021/09/05 02:30:26;;;;;;;9.27;4.13;;;16.20;89.50;;;;;;5054788;28;20380;-72
2021/09/05 02:32:52;;;;;;;8.25;4.00;;;16.20;89.60;;;;;;5055035;28;20171;-72
2021/09/05 02:35:18;;;;;;;10.98;4.28;;;16.20;89.60;;;;;;5054559;28;20023;-72
2021/09/05 02:37:44;;;;;;;8.15;3.90;;;16.20;89.50;;;;;;5053879;28;20020;-72
2021/09/05 02:40:10;;;;;;;7.97;3.65;;;16.20;89.60;;;;;;5055046;28;20037;-71
2021/09/05 02:42:36;;;;;;;10.68;4.00;;;16.10;89.40;;;;;;5053264;28;20294;-72
2021/09/05 02:45:04;;;;;;;10.45;4.15;;;16.20;89.50;;;;;;5055258;28;20067;-72
2021/09/05 02:47:30;;;;;;;7.40;3.65;;;16.10;89.60;;;;;;5034604;28;20064;-72
2021/09/05 02:49:55;;;;;;;9.57;4.05;;;16.10;89.50;;;;;;5035088;28;20057;-72
2021/09/05 02:52:21;;;;;;;8.40;4.00;;;16.10;89.50;;;;;;5034108;28;20029;-72
2021/09/05 02:54:48;;;;;;;8.50;3.70;;;16.10;89.60;;;;;;5034689;28;20526;-72
2021/09/05 02:57:13;;;;;;;9.00;3.63;;;16.10;89.60;;;;;;5033589;28;20385;-72
2021/09/05 02:59:39;;;;;;;8.93;3.42;;;16.10;89.60;;;;;;5032850;28;20034;-72
2021/09/05 03:02:05;;;;;;;7.05;3.72;;;16.10;89.60;;;;;;5034572;28;20105;-72
2021/09/05 03:04:31;;;;;;;7.18;3.80;;;16.00;89.50;;;;;;5033807;28;20026;-72
2021/09/05 03:06:56;;;;;;;8.35;3.58;;;16.00;89.60;;;;;;5033556;28;20025;-72
2021/09/05 03:09:22;;;;;;;9.07;4.22;;;16.00;89.70;;;;;;5032718;28;20101;-72
2021/09/05 03:11:48;;;;;;;12.52;4.30;;;16.00;89.70;;;;;;5034618;28;20388;-72
2021/09/05 03:14:15;;;;;;;10.85;3.95;;;15.90;89.70;;;;;;5034575;28;20116;-72
2021/09/05 03:16:41;;;;;;;7.68;3.92;;;15.90;89.70;;;;;;5033985;28;20041;-72
2021/09/05 03:19:06;;;;;;;7.72;3.50;;;15.90;89.60;;;;;;5053796;28;20060;-72
2021/09/05 03:21:32;;;;;;;8.50;3.97;;;15.90;89.70;;;;;;5052890;28;20104;-72
2021/09/05 03:23:58;;;;;;;8.88;4.00;;;15.90;89.70;;;;;;5054312;28;20025;-72
2021/09/05 03:26:24;;;;;;;9.48;4.32;;;15.90;89.70;;;;;;5052404;28;20022;-72
2021/09/05 03:28:49;;;;;;;8.55;3.60;;;15.80;89.60;;;;;;5054324;28;20029;-72
2021/09/05 03:31:15;;;;;;;8.15;3.88;;;15.80;89.60;;;;;;5054455;28;20461;-72
2021/09/05 03:33:41;;;;;;;9.93;3.85;;;15.80;89.60;;;;;;5053330;28;20484;-72
2021/09/05 03:36:07;;;;;;;8.15;3.92;;;15.80;89.70;;;;;;5053157;28;20441;-72
2021/09/05 03:38:33;;;;;;;7.57;3.42;;;15.80;89.70;;;;;;5053392;28;20029;-72
2021/09/05 03:40:58;;;;;;;9.60;4.13;;;15.80;89.80;;;;;;5052845;28;20473;-72
2021/09/05 03:43:24;;;;;;;9.68;3.85;;;15.80;89.80;;;;;;5053100;28;20029;-72
2021/09/05 03:45:50;;;;;;;10.07;4.05;;;15.70;89.80;;;;;;5053670;28;20052;-73
2021/09/05 03:48:16;;;;;;;10.68;3.65;;;15.70;89.90;;;;;;5053963;28;20049;-73
2021/09/05 03:50:42;;;;;;;10.57;4.20;;;15.70;90.00;;;;;;5052838;28;20037;-73
2021/09/05 03:53:07;;;;;;;8.27;3.83;;;15.70;89.90;;;;;;5053577;28;20028;-73
2021/09/05 03:55:33;;;;;;;8.07;4.45;;;15.70;89.90;;;;;;5053056;28;20418;-72
2021/09/05 03:57:59;;;;;;;9.73;3.50;;;15.70;89.90;;;;;;5053385;28;20124;-72
2021/09/05 04:00:24;;;;;;;6.65;3.50;;;15.70;90.20;;;;;;5052913;28;20037;-73
2021/09/05 04:02:50;;;;;;;6.55;3.42;;;15.70;90.00;;;;;;5053363;28;20031;-73
2021/09/05 04:05:16;;;;;;;8.52;3.95;;;15.70;90.00;;;;;;5053788;28;20036;-73
2021/09/05 04:08:01;;;;;;;7.63;3.47;;;15.60;90.00;;;;;;5052921;28;20659;-73
2021/09/05 04:10:27;;;;;;;6.40;3.28;;;15.60;90.00;;;;;;5052918;28;20487;-72
2021/09/05 04:12:53;;;;;;;7.68;3.42;;;15.60;90.00;;;;;;5053431;28;20021;-73
2021/09/05 04:15:19;;;;;;;7.38;3.33;;;15.60;90.10;;;;;;5053648;28;20031;-72
2021/09/05 04:17:44;;;;;;;8.52;4.05;;;15.60;90.10;;;;;;5052790;28;20028;-73
2021/09/05 04:20:10;;;;;;;9.43;3.67;;;15.60;90.10;;;;;;5051861;28;20024;-72
2021/09/05 04:22:36;;;;;;;10.95;3.65;;;15.50;90.10;;;;;;5052652;28;20525;-73
2021/09/05 04:25:03;;;;;;;7.80;3.65;;;15.60;90.20;;;;;;5052991;28;20064;-72
2021/09/05 04:27:28;;;;;;;7.57;3.42;;;15.50;90.10;;;;;;5052523;28;20039;-73
2021/09/05 04:29:54;;;;;;;7.70;3.80;;;15.50;90.10;;;;;;5053108;28;20368;-73
2021/09/05 04:32:20;;;;;;;6.80;3.40;;;15.50;90.10;;;;;;5052745;28;20021;-72
2021/09/05 04:34:47;;;;;;;11.43;4.25;;;15.50;90.20;;;;;;5052314;28;20079;-73
2021/09/05 04:37:12;;;;;;;11.00;4.20;;;15.50;90.20;;;;;;5052604;28;20404;-73
2021/09/05 04:39:38;;;;;;;7.18;3.45;;;15.50;90.20;;;;;;5052205;28;20029;-73
2021/09/05 04:42:04;;;;;;;8.13;3.42;;;15.50;90.20;;;;;;5052855;28;20025;-73
2021/09/05 04:44:29;;;;;;;12.00;4.63;;;15.50;90.20;;;;;;5052460;28;20048;-72
2021/09/05 04:46:55;;;;;;;8.73;3.70;;;15.40;90.20;;;;;;5052845;28;20096;-72
2021/09/05 04:49:21;;;;;;;11.40;3.75;;;15.40;90.20;;;;;;5052625;28;20025;-72
2021/09/05 04:51:46;;;;;;;8.73;3.70;;;15.40;90.20;;;;;;5051997;28;20021;-72
2021/09/05 04:54:12;;;;;;;8.07;3.47;;;15.40;90.20;;;;;;5052553;28;20075;-72
2021/09/05 04:56:38;;;;;;;12.30;4.32;;;15.40;90.20;;;;;;5051631;28;20048;-72
2021/09/05 04:59:04;;;;;;;10.95;4.60;;;15.40;90.20;;;;;;5051054;28;20477;-73
2021/09/05 05:01:29;;;;;;;7.40;3.80;;;15.40;90.20;;;;;;5050567;28;20094;-73
2021/09/05 05:03:55;;;;;;;9.40;4.10;;;15.30;90.20;;;;;;5052339;28;20025;-72
2021/09/05 05:06:21;;;;;;;7.85;4.10;;;15.30;90.20;;;;;;5052479;28;20021;-72
2021/09/05 05:08:47;;;;;;;8.30;4.05;;;15.30;90.20;;;;;;5051822;28;20055;-72
2021/09/05 05:11:13;;;;;;;8.85;4.20;;;15.30;90.20;;;;;;5051002;28;20021;-72
2021/09/05 05:13:39;;;;;;;9.38;4.22;;;15.30;90.20;;;;;;5050281;28;20028;-72
2021/09/05 05:16:05;;;;;;;7.93;4.80;;;15.30;90.20;;;;;;5052075;28;20025;-73
2021/09/05 05:18:31;;;;;;;11.82;3.95;;;15.20;90.20;;;;;;5051183;28;20053;-72
2021/09/05 05:20:56;;;;;;;7.60;3.58;;;15.20;90.20;;;;;;5052112;28;20037;-73
2021/09/05 05:23:22;;;;;;;8.55;3.65;;;15.20;90.30;;;;;;5051716;28;20392;-73
2021/09/05 05:25:47;;;;;;;8.38;3.97;;;15.20;90.30;;;;;;5051510;28;20024;-73
2021/09/05 05:28:13;;;;;;;8.43;3.78;;;15.20;90.30;;;;;;5052245;28;20559;-73
2021/09/05 05:30:39;;;;;;;8.35;3.80;;;15.20;90.30;;;;;;5051158;28;20096;-73
2021/09/05 05:33:04;;;;;;;10.77;4.40;;;15.20;90.30;;;;;;5051957;28;20453;-73
2021/09/05 05:35:30;;;;;;;8.50;4.00;;;15.20;90.30;;;;;;5051270;28;20021;-73
2021/09/05 05:37:56;;;;;;;7.75;3.92;;;15.20;90.30;;;;;;5052386;28;20415;-72
2021/09/05 05:40:25;;;;;;;8.40;3.90;;;15.10;90.20;;;;;;5051597;28;20025;-72
2021/09/05 05:42:51;;;;;;;8.15;3.95;;;15.20;90.20;;;;;;5051005;28;20439;-72
2021/09/05 05:45:17;;;;;;;8.27;4.28;;;15.20;90.20;;;;;;5051813;28;20025;-72
2021/09/05 05:47:46;;;;;;;8.70;4.05;;;15.20;90.40;;;;;;5051217;28;20025;-72
2021/09/05 05:50:12;;;;;;;9.05;3.80;;;15.20;90.20;;;;;;5051532;28;20358;-73
2021/09/05 05:52:38;;;;;;;9.63;3.95;;;15.20;90.20;;;;;;5051164;28;20032;-72
2021/09/05 05:55:05;;;;;;;8.98;4.53;;;15.10;90.20;;;;;;5051828;28;20392;-72
2021/09/05 05:57:30;;;;;;;8.02;3.88;;;15.20;90.20;;;;;;5051161;28;20032;-72
2021/09/05 05:59:56;;;;;;;10.07;3.85;;;15.20;90.30;;;;;;5054819;28;20033;-72
2021/09/05 06:02:22;;;;;;;8.70;3.88;;;15.20;90.20;;;;;;5055849;28;20025;-73
2021/09/05 06:04:47;;;;;;;7.93;3.53;;;15.10;90.20;;;;;;5055177;28;20048;-72
2021/09/05 06:07:13;;;;;;;8.13;3.83;;;15.20;90.20;;;;;;5055510;28;20017;-72
2021/09/05 06:09:42;;;;;;;7.57;3.75;;;15.20;90.10;;;;;;5055490;28;20032;-73
2021/09/05 06:12:09;;;;;;;8.20;3.47;;;15.20;90.20;;;;;;5055791;28;20071;-72
2021/09/05 06:14:38;;;;;;;8.68;3.17;;;15.20;90.10;;;;;;5054857;28;20021;-72
2021/09/05 06:17:04;;;;;;;9.35;4.18;;;15.30;90.10;;;;;;5055566;28;20025;-72
2021/09/05 06:19:30;;;;;;;11.20;4.25;;;15.30;90.10;;;;;;5055019;28;20047;-72
2021/09/05 06:21:56;;;;;;;9.25;3.92;;;15.30;90.20;;;;;;5055120;28;20021;-72
2021/09/05 06:24:22;;;;;;;7.20;3.47;;;15.30;90.10;;;;;;5055434;28;20044;-72
2021/09/05 06:26:48;;;;;;;9.75;4.38;;;15.40;90.20;;;;;;5055116;28;20074;-72
2021/09/05 06:29:14;;;;;;;8.38;4.15;;;15.40;90.20;;;;;;5055148;28;20515;-73
2021/09/05 06:31:40;;;;;;;8.85;3.80;;;15.40;90.20;;;;;;5054697;28;20531;-73
2021/09/05 06:34:06;;;;;;;10.88;4.47;;;15.40;90.10;;;;;;5055245;28;20051;-73
2021/09/05 06:36:32;;;;;;;8.90;3.92;;;15.40;90.10;;;;;;5053780;28;20111;-72
2021/09/05 06:38:58;;;;;;;7.75;3.13;;;15.50;90.10;;;;;;5055060;28;20116;-72
2021/09/05 06:41:23;;;;;;;10.93;4.35;;;15.50;90.10;;;;;;5054809;28;20052;-73
2021/09/05 06:43:49;;;;;;;8.82;3.90;;;15.50;90.10;;;;;;5054246;28;20024;-73
2021/09/05 06:46:15;;;;;;;8.40;4.13;;;15.50;90.10;;;;;;5055320;28;20025;-73
2021/09/05 06:48:44;;;;;;;9.68;4.05;;;15.50;90.10;;;;;;5053056;28;20021;-73
2021/09/05 06:51:10;;;;;;;9.70;3.83;;;15.50;90.10;;;;;;5054633;28;20025;-72
2021/09/05 06:53:36;;;;;;;8.65;3.97;;;15.60;90.00;;;;;;5054578;28;20021;-73
2021/09/05 06:56:02;;;;;;;7.95;3.83;;;15.60;90.00;;;;;;5055116;28;20025;-73
2021/09/05 06:58:27;;;;;;;7.65;3.63;;;15.60;90.00;;;;;;5054914;28;20017;-74
2021/09/05 07:00:53;;;;;;;9.18;3.45;;;15.70;90.00;;;;;;5054070;28;20513;-73
2021/09/05 07:03:19;;;;;;;10.10;3.63;;;15.70;90.00;;;;;;5050346;28;20488;-74
2021/09/05 07:05:45;;;;;;;8.23;4.18;;;15.70;90.00;;;;;;5048994;28;20060;-73
2021/09/05 07:08:11;;;;;;;9.55;3.30;;;15.70;90.00;;;;;;5053961;28;20108;-74
2021/09/05 07:10:37;;;;;;;8.75;4.22;;;15.80;90.00;;;;;;5053965;28;20069;-73
2021/09/05 07:13:03;;;;;;;7.53;3.95;;;15.80;89.90;;;;;;5054508;28;20051;-73
2021/09/05 07:15:29;;;;;;;9.23;3.13;;;15.90;89.90;;;;;;5052644;28;20025;-74
2021/09/05 07:17:54;;;;;;;5.57;2.88;;;15.90;89.90;;;;;;5053516;28;20349;-73
2021/09/05 07:20:20;;;;;;;8.00;3.22;;;15.90;89.80;;;;;;5054677;28;20060;-74
2021/09/05 07:22:46;;;;;;;9.02;3.38;;;15.90;89.80;;;;;;5052745;28;20016;-74
2021/09/05 07:25:12;;;;;;;8.63;3.92;;;16.00;89.80;;;;;;5053021;28;20029;-73
2021/09/05 07:27:38;;;;;;;6.18;2.72;;;16.00;89.60;;;;;;5055219;28;20020;-73
2021/09/05 07:30:08;;;;;;;5.85;2.83;;;16.00;89.50;;;;;;5053677;28;20461;-73
2021/09/05 07:32:34;;;;;;;5.82;3.00;;;16.10;89.50;;;;;;5053785;28;20092;-73
2021/09/05 07:34:59;;;;;;;7.53;3.15;;;16.10;89.50;;;;;;5052359;28;20024;-73
2021/09/05 07:37:25;;;;;;;8.27;3.40;;;16.10;89.40;;;;;;5053613;28;20431;-72
2021/09/05 07:39:51;;;;;;;8.05;3.90;;;16.20;89.40;;;;;;5052532;28;20040;-73
2021/09/05 07:42:17;;;;;;;7.45;3.42;;;16.20;89.30;;;;;;5053321;28;20088;-74
2021/09/05 07:44:42;;;;;;;9.02;3.17;;;16.20;89.30;;;;;;5052424;28;20021;-74
2021/09/05 07:47:08;;;;;;;6.82;3.63;;;16.20;89.10;;;;;;5053429;28;20436;-74
2021/09/05 07:49:34;;;;;;;8.20;3.50;;;16.30;89.20;;;;;;5053002;28;20025;-73
2021/09/05 07:51:59;;;;;;;8.15;3.53;;;16.30;89.10;;;;;;5053121;28;20048;-74
2021/09/05 07:54:25;;;;;;;8.13;3.65;;;16.30;88.90;;;;;;5052940;28;20017;-74
2021/09/05 07:56:51;;;;;;;8.65;4.32;;;16.40;88.90;;;;;;5053368;28;20384;-74
2021/09/05 07:59:16;;;;;;;10.00;4.38;;;16.40;88.70;;;;;;5050811;28;20033;-73
2021/09/05 08:01:42;;;;;;;9.02;3.22;;;16.50;88.60;;;;;;5051262;28;20054;-73
2021/09/05 08:04:08;;;;;;;10.40;3.75;;;16.50;88.60;;;;;;5052890;28;20017;-73
2021/09/05 08:06:34;;;;;;;9.55;3.80;;;16.50;88.60;;;;;;5052772;28;20139;-73
2021/09/05 08:08:59;;;;;;;9.30;3.65;;;16.50;89.10;;;;;;5052357;28;20029;-73
2021/09/05 08:11:25;;;;;;;6.53;3.25;;;16.60;88.20;;;;;;5052896;28;20098;-73
2021/09/05 08:13:52;;;;;;;7.47;4.00;;;16.70;88.20;;;;;;5050395;28;20028;-73
2021/09/05 08:16:18;;;;;;;5.65;3.13;;;16.70;88.00;;;;;;5052452;28;20021;-73
2021/09/05 08:18:44;;;;;;;6.95;3.25;;;16.70;87.90;;;;;;5040540;28;20050;-73
2021/09/05 08:21:10;;;;;;;11.27;3.70;;;16.70;87.80;;;;;;5050921;28;20091;-73
2021/09/05 08:23:37;;;;;;;6.57;3.25;;;16.70;87.80;;;;;;5052811;28;20025;-72
2021/09/05 08:26:04;;;;;;;8.13;4.13;;;16.80;87.80;;;;;;5051704;28;20441;-73
2021/09/05 08:28:30;;;;;;;9.63;3.55;;;16.80;87.70;;;;;;5050301;28;20116;-74
2021/09/05 08:30:56;;;;;;;7.57;3.90;;;16.80;88.40;;;;;;5051844;28;20027;-72
2021/09/05 08:33:22;;;;;;;7.45;3.45;;;16.90;87.80;;;;;;5052893;28;20100;-73
2021/09/05 08:35:48;;;;;;;7.18;3.53;;;16.90;87.80;;;;;;5050634;28;20036;-74
2021/09/05 08:38:14;;;;;;;9.25;3.47;;;17.00;87.80;;;;;;5051829;28;20075;-73
2021/09/05 08:40:45;;;;;;;8.43;2.85;;;17.00;87.70;;;;;;5049195;28;20029;-72
2021/09/05 08:43:12;;;;;;;;;;;17.00;87.60;;;;;;5050955;28;20029;-73
2021/09/05 08:45:38;;;;;;;8.95;3.42;;;17.10;87.60;;;;;;5051230;28;19970;-73
2021/09/05 08:48:04;;;;;;;9.60;3.63;;;17.10;87.40;;;;;;5051866;28;20028;-73
2021/09/05 08:50:31;;;;;;;10.18;4.18;;;17.10;87.30;;;;;;5052637;28;20063;-73
2021/09/05 08:52:57;;;;;;;8.60;3.70;;;17.10;87.20;;;;;;5051581;28;20469;-72
2021/09/05 08:55:23;;;;;;;4.18;2.50;;;17.20;87.20;;;;;;5052121;28;20074;-72
2021/09/05 08:57:49;;;;;;;9.10;3.63;;;17.20;87.20;;;;;;5051763;28;20048;-73
2021/09/05 09:00:15;;;;;;;6.25;2.90;;;17.30;87.20;;;;;;5051993;28;20071;-72
2021/09/05 09:02:53;;;;;;;8.95;3.53;;;17.30;87.10;;;;;;5051244;28;20025;-72
2021/09/05 09:05:36;;;;;;;6.93;3.35;;;17.40;87.10;;;;;;5050545;28;20106;-72
2021/09/05 09:08:08;;;;;;;8.48;3.70;;;17.40;86.90;;;;;;5048020;28;20498;-73
2021/09/05 09:10:51;;;;;;;9.57;3.75;;;17.40;86.90;;;;;;5052495;28;20081;-73
2021/09/05 09:13:23;;;;;;;9.48;4.20;;;17.50;86.70;;;;;;5052022;28;20468;-73
2021/09/05 09:15:49;;;;;;;8.68;4.10;;;17.50;86.60;;;;;;5051091;28;20048;-73
2021/09/05 09:18:24;;;;;;;11.10;5.00;;;17.60;86.60;;;;;;5050939;28;20465;-73
2021/09/05 09:20:50;;;;;;;7.38;3.30;;;17.60;86.50;;;;;;5049354;28;20029;-74
2021/09/05 09:23:20;;;;;;;12.10;4.10;;;17.70;86.40;;;;;;5051438;28;20076;-73
2021/09/05 09:26:06;;;;;;;7.97;3.42;;;17.70;86.40;;;;;;5050974;28;20025;-73
2021/09/05 09:28:40;;;;;;;7.40;3.70;;;17.70;86.20;;;;;;5050951;28;20021;-74
2021/09/05 09:31:13;;;;;;;8.93;3.75;;;17.80;86.10;;;;;;5051302;28;20081;-74
2021/09/05 09:33:39;;;;;;;9.75;4.45;;;17.90;85.90;;;;;;5050223;28;20024;-74
2021/09/05 09:36:05;;;;;;;9.23;3.53;;;18.00;85.80;;;;;;5050638;28;20036;-74
2021/09/05 09:38:31;;;;;;;7.80;3.45;;;18.00;85.70;;;;;;5051255;28;20029;-73
2021/09/05 09:41:15;;;;;;;10.48;3.30;;;18.00;85.70;;;;;;5050522;28;20420;-73
2021/09/05 09:44:12;;;;;;;8.65;3.88;;;18.10;85.50;;;;;;5051001;28;20470;-73
2021/09/05 09:46:40;;;;;;;9.55;3.75;;;18.20;85.30;;;;;;5050619;28;20040;-73
2021/09/05 09:49:08;;;;;;;8.20;4.03;;;18.20;85.10;;;;;;5049463;28;20025;-74
2021/09/05 09:51:35;;;;;;;7.40;3.38;;;18.30;85.00;;;;;;5051077;28;20037;-73
2021/09/05 09:54:00;;;;;;;8.38;2.88;;;18.30;85.00;;;;;;5050256;28;20182;-73
2021/09/05 09:56:27;;;;;;;9.55;3.92;;;18.30;85.00;;;;;;5051285;28;20464;-73
2021/09/05 09:58:59;;;;;;;8.85;4.18;;;18.40;85.00;;;;;;5021677;28;20121;-73
2021/09/05 10:01:28;;;;;;;7.88;3.60;;;18.40;84.90;;;;;;5004634;28;20038;-73
2021/09/05 10:03:56;;;;;;;9.20;3.75;;;18.50;84.70;;;;;;5003962;28;20053;-73
2021/09/05 10:06:32;;;;;;;6.88;3.42;;;18.50;84.70;;;;;;5003586;28;20033;-73
2021/09/05 10:09:03;;;;;;;12.73;4.03;;;18.60;84.70;;;;;;5002515;28;20045;-73
2021/09/05 10:11:30;;;;;;;10.02;3.97;;;18.60;84.50;;;;;;5004601;28;20549;-73
2021/09/05 10:13:57;;;;;;;3.47;2.22;;;18.70;84.30;;;;;;5003552;28;20030;-71
2021/09/05 10:16:23;;;;;;;9.70;4.05;;;18.80;84.10;;;;;;5002303;28;20096;-72
2021/09/05 10:18:51;;;;;;;9.13;4.05;;;18.80;84.10;;;;;;5002680;28;20038;-72
2021/09/05 10:21:19;;;;;;;7.07;3.50;;;18.90;84.10;;;;;;5003628;28;20068;-72
2021/09/05 10:23:48;;;;;;;7.20;3.47;;;18.90;83.80;;;;;;5002737;28;20038;-72
2021/09/05 10:26:15;;;;;;;7.03;3.13;;;19.10;83.70;;;;;;5002298;28;20022;-73
2021/09/05 10:28:49;;;;;;;9.00;4.03;;;19.10;83.40;;;;;;5000953;28;20010;-73
2021/09/05 10:31:41;;;;;;;10.32;4.10;;;19.10;83.10;;;;;;5003189;28;20092;-74
2021/09/05 10:34:29;;;;;;;6.13;2.55;;;19.20;83.10;;;;;;5002595;28;20050;-73
2021/09/05 10:37:09;;;;;;;8.85;3.10;;;19.20;83.20;;;;;;5002052;28;20034;-73
2021/09/05 10:39:35;;;;;;;5.55;2.70;;;19.20;83.10;;;;;;5022235;28;20018;-73
2021/09/05 10:42:00;;;;;;;8.88;3.60;;;19.30;83.10;;;;;;5009771;28;20461;-81
2021/09/05 10:44:26;;;;;;;9.50;3.22;;;19.30;82.90;;;;;;5002959;28;20033;-82
2021/09/05 10:46:55;;;;;;;9.40;3.90;;;19.40;82.60;;;;;;5012484;28;20030;-82
2021/09/05 10:49:40;;;;;;;5.80;3.35;;;19.50;82.40;;;;;;5013839;28;20025;-82
2021/09/05 10:52:06;;;;;;;6.50;2.40;;;19.60;81.70;;;;;;5015118;28;20014;-81
2021/09/05 10:54:32;;;;;;;6.80;2.78;;;19.70;81.70;;;;;;5028314;28;20022;-82
2021/09/05 10:56:59;;;;;;;5.65;2.78;;;19.80;81.60;;;;;;5011805;28;20347;-82
2021/09/05 10:59:31;;;;;;;5.65;3.30;;;19.80;81.50;;;;;;5008413;28;20029;-81
2021/09/05 11:02:00;;;;;;;10.43;3.50;;;19.90;81.50;;;;;;5013018;28;20048;-81
2021/09/05 11:04:28;;;;;;;10.15;3.40;;;19.90;81.30;;;;;;5013301;28;20025;-82
2021/09/05 11:07:05;;;;;;;5.63;2.47;;;20.00;81.00;;;;;;5008205;28;20030;-82
2021/09/05 11:09:30;;;;;;;7.72;3.15;;;20.10;80.70;;;;;;4993174;28;20054;-82
2021/09/05 11:12:00;;;;;;;7.38;2.95;;;20.20;80.50;;;;;;5024548;28;20058;-82
2021/09/05 11:14:37;;;;;;;8.73;3.42;;;20.20;80.20;;;;;;4993542;28;20105;-82
2021/09/05 11:17:13;;;;;;;5.65;3.10;;;20.30;79.60;;;;;;4992927;28;20114;-82
2021/09/05 11:19:58;;;;;;;7.35;3.15;;;20.40;79.10;;;;;;5007908;28;20455;-80
2021/09/05 11:22:30;;;;;;;8.30;3.42;;;20.40;78.50;;;;;;5008075;28;20041;-82
2021/09/05 11:25:10;;;;;;;5.70;2.72;;;20.50;79.00;;;;;;5024210;28;20022;-82
2021/09/05 11:27:37;;;;;;;6.15;2.90;;;20.60;77.80;;;;;;4998633;28;20033;-82
2021/09/05 11:30:07;;;;;;;6.13;2.60;;;20.70;77.80;;;;;;4996644;28;20081;-81
2021/09/05 11:32:33;;;;;;;8.55;3.28;;;20.80;77.80;;;;;;5001497;28;20029;-82
2021/09/05 11:34:59;;;;;;;5.85;2.40;;;20.80;77.70;;;;;;4999285;28;20022;-81
2021/09/05 11:37:31;;;;;;;7.45;3.53;;;20.90;77.80;;;;;;5025231;28;20018;-81
2021/09/05 11:40:09;;;;;;;4.72;2.40;;;21.00;77.60;;;;;;5027402;28;20386;-81
2021/09/05 11:42:35;;;;;;;8.18;2.95;;;21.10;77.50;;;;;;5027768;28;20019;-82
2021/09/05 11:45:09;;;;;;;10.02;3.00;;;21.20;77.10;;;;;;5011905;28;20380;-82
2021/09/05 11:47:35;;;;;;;7.50;3.20;;;21.30;76.50;;;;;;5013103;28;20080;-80
2021/09/05 11:50:03;;;;;;;6.80;3.30;;;21.40;76.10;;;;;;5011836;28;20420;-81
2021/09/05 11:52:35;;;;;;;6.03;3.05;;;21.50;75.60;;;;;;5027740;28;20513;-81
2021/09/05 11:55:03;;;;;;;7.03;3.15;;;21.70;75.00;;;;;;5011891;28;20026;-81
2021/09/05 11:57:29;;;;;;;4.57;2.10;;;21.80;74.60;;;;;;5011596;28;20026;-82
2021/09/05 11:59:57;;;;;;;7.95;3.33;;;21.90;74.40;;;;;;5026749;28;20034;-82
2021/09/05 12:02:30;;;;;;;3.58;2.17;;;22.00;74.10;;;;;;5012668;28;20022;-80
2021/09/05 12:04:57;;;;;;;5.55;3.00;;;22.10;74.40;;;;;;5012159;28;20058;-80
2021/09/05 12:07:23;;;;;;;5.07;2.67;;;22.20;73.30;;;;;;5016422;28;20065;-80
2021/09/05 12:10:03;;;;;;;7.45;2.85;;;22.30;72.50;;;;;;5004568;28;20438;-81
2021/09/05 12:12:29;;;;;;;6.28;2.70;;;22.40;72.00;;;;;;5026594;28;20022;-80
2021/09/05 12:14:54;;;;;;;5.35;2.95;;;22.50;72.00;;;;;;5026269;28;20446;-86
2021/09/05 12:17:22;;;;;;;4.95;2.47;;;22.50;71.60;;;;;;4998443;28;20042;-82
2021/09/05 12:19:59;;;;;;;5.63;2.78;;;22.50;71.40;;;;;;4991790;28;20136;-82
2021/09/05 12:22:25;;;;;;;5.43;2.55;;;22.60;71.30;;;;;;4991094;28;20022;-83
2021/09/05 12:24:55;;;;;;;4.95;2.40;;;22.50;71.10;;;;;;4992442;28;20022;-81
2021/09/05 12:27:21;;;;;;;7.10;3.08;;;22.60;71.00;;;;;;4990789;28;20026;-82
2021/09/05 12:29:47;;;;;;;6.95;3.08;;;22.60;70.90;;;;;;4991096;28;20026;-80
2021/09/05 12:32:14;;;;;;;7.85;3.10;;;22.60;71.00;;;;;;4991820;28;20029;-80
2021/09/05 12:34:42;;;;;;;7.15;3.33;;;22.50;70.70;;;;;;4992338;28;20041;-81
2021/09/05 12:37:14;;;;;;;5.20;2.83;;;22.50;70.50;;;;;;4991834;28;20029;-81
2021/09/05 12:39:41;;;;;;;6.47;3.00;;;22.50;70.20;;;;;;4991855;28;20037;-80
2021/09/05 12:42:11;;;;;;;6.70;3.40;;;22.50;70.20;;;;;;4991237;28;20018;-81
2021/09/05 12:44:49;;;;;;;5.93;2.78;;;22.50;70.10;;;;;;4992024;28;20113;-82
2021/09/05 12:47:25;;;;;;;6.40;3.10;;;22.40;70.00;;;;;;4991531;28;20026;-81